Huvudsida
METAR-TAF:

METAR-TAF

Flygplatser :

Kastrups flygplats

Köpenhamn, Danmark

latitud: 55-37N, longitud: 012-39E, höjd: 5 m

Aktuellt väderrapport

Denna rapport gjordes för 16 minuter sedan, klockan 14:20 UTC
Vind 10 kt från syd/sydost
Temperatur 9°C
Fuktighet 71%
Tryck 1037 hPa
Sikt 10 km eller mer
Inga moln under 1 500 m eller inga cumulonimbus

METAR: EKCH 161420Z 15010KT CAVOK 09/04 Q1037 NOSIG

Tid: 15:36 (14:36 UTC)

Väderprognos

Denna rapport gjordes för 3 timmar och 35 minuter sedan, klockan 11:01 UTC
Prognos gäller från 16 kl. 12 UTC till 17 kl. 12 UTC
Vind 14 kt från syd/sydost
Sikt 10 km eller mer
Inga moln under 1 500 m eller inga cumulonimbus
Temporärt
från 16 kl. 21 UTC till 17 kl. 08 UTC
Brutna moln på en höjd av 1200 ft

TAF: EKCH 161101Z 1612/1712 16014KT CAVOK TEMPO 1621/1708 BKN012

Aktuella väderrapporter och prognoser från 4000 flygplatser (METAR- och TAF-rapporter).

De tillgängliga stationerna syns som gula och röda prickar på kartan.

För musen över prickarna för att se namnen på stationerna.

Klicka sedan för att få väderrapporter och prognoser.

För att ändra kartan: Klicka på de gröna knapparna med ett svart kors på för att zooma in; den gröna knappen med ett streck på för att zooma ut; eller på de gröna pilarna för angränsande kartor.


METAR-TAF: